sensor_id;sensor_type;location;lat;lon;timestamp;pressure;altitude;pressure_sealevel;temperature;humidity
25238;BME280;13185;50.872;5.306;2023-02-01T00:00:45;101886.06;;;5.37;100.00
25238;BME280;13185;50.872;5.306;2023-02-01T00:03:11;101888.69;;;5.39;100.00
25238;BME280;13185;50.872;5.306;2023-02-01T00:05:38;101887.81;;;5.38;100.00
25238;BME280;13185;50.872;5.306;2023-02-01T00:08:03;101876.25;;;5.39;100.00
25238;BME280;13185;50.872;5.306;2023-02-01T00:10:29;101883.31;;;5.40;100.00
25238;BME280;13185;50.872;5.306;2023-02-01T00:12:54;101882.41;;;5.41;100.00
25238;BME280;13185;50.872;5.306;2023-02-01T00:15:20;101868.22;;;5.41;100.00
25238;BME280;13185;50.872;5.306;2023-02-01T00:17:46;101874.41;;;5.43;100.00
25238;BME280;13185;50.872;5.306;2023-02-01T00:20:11;101868.22;;;5.42;100.00
25238;BME280;13185;50.872;5.306;2023-02-01T00:22:37;101859.31;;;5.43;100.00
25238;BME280;13185;50.872;5.306;2023-02-01T00:25:02;101869.09;;;5.43;100.00
25238;BME280;13185;50.872;5.306;2023-02-01T00:27:28;101869.97;;;5.43;100.00
25238;BME280;13185;50.872;5.306;2023-02-01T00:29:55;101861.97;;;5.43;100.00
25238;BME280;13185;50.872;5.306;2023-02-01T00:32:20;101858.41;;;5.44;100.00
25238;BME280;13185;50.872;5.306;2023-02-01T00:34:46;101855.78;;;5.43;100.00
25238;BME280;13185;50.872;5.306;2023-02-01T00:37:12;101846.91;;;5.44;100.00
25238;BME280;13185;50.872;5.306;2023-02-01T00:39:37;101853.09;;;5.44;100.00
25238;BME280;13185;50.872;5.306;2023-02-01T00:42:03;101857.50;;;5.45;100.00
25238;BME280;13185;50.872;5.306;2023-02-01T00:44:28;101863.69;;;5.46;100.00
25238;BME280;13185;50.872;5.306;2023-02-01T00:46:58;101860.09;;;5.47;100.00
25238;BME280;13185;50.872;5.306;2023-02-01T00:49:24;101860.16;;;5.45;100.00
25238;BME280;13185;50.872;5.306;2023-02-01T00:51:49;101849.50;;;5.45;100.00
25238;BME280;13185;50.872;5.306;2023-02-01T00:54:15;101824.69;;;5.45;100.00
25238;BME280;13185;50.872;5.306;2023-02-01T00:56:40;101816.72;;;5.45;100.00
25238;BME280;13185;50.872;5.306;2023-02-01T00:59:10;101814.09;;;5.43;100.00
25238;BME280;13185;50.872;5.306;2023-02-01T01:01:35;101804.38;;;5.42;100.00
25238;BME280;13185;50.872;5.306;2023-02-01T01:04:01;101814.16;;;5.42;100.00
25238;BME280;13185;50.872;5.306;2023-02-01T01:06:31;101814.16;;;5.42;100.00
25238;BME280;13185;50.872;5.306;2023-02-01T01:08:58;101822.13;;;5.42;100.00
25238;BME280;13185;50.872;5.306;2023-02-01T01:11:27;101811.50;;;5.40;100.00
25238;BME280;13185;50.872;5.306;2023-02-01T01:13:54;101818.59;;;5.40;100.00
25238;BME280;13185;50.872;5.306;2023-02-01T01:16:21;101829.25;;;5.40;100.00
25238;BME280;13185;50.872;5.306;2023-02-01T01:18:50;101830.97;;;5.42;100.00
25238;BME280;13185;50.872;5.306;2023-02-01T01:21:16;101838.09;;;5.40;100.00
25238;BME280;13185;50.872;5.306;2023-02-01T01:23:43;101845.16;;;5.41;100.00
25238;BME280;13185;50.872;5.306;2023-02-01T01:26:21;101852.25;;;5.42;100.00
25238;BME280;13185;50.872;5.306;2023-02-01T01:28:48;101854.88;;;5.44;100.00
25238;BME280;13185;50.872;5.306;2023-02-01T01:31:16;101843.34;;;5.43;100.00
25238;BME280;13185;50.872;5.306;2023-02-01T01:33:43;101838.03;;;5.43;100.00
25238;BME280;13185;50.872;5.306;2023-02-01T01:36:11;101834.47;;;5.44;100.00
25238;BME280;13185;50.872;5.306;2023-02-01T01:38:38;101835.38;;;5.43;100.00
25238;BME280;13185;50.872;5.306;2023-02-01T01:41:04;101820.28;;;5.44;100.00
25238;BME280;13185;50.872;5.306;2023-02-01T01:44:01;101813.19;;;5.44;100.00
25238;BME280;13185;50.872;5.306;2023-02-01T01:46:29;101818.50;;;5.44;100.00
25238;BME280;13185;50.872;5.306;2023-02-01T01:49:04;101816.75;;;5.43;100.00
25238;BME280;13185;50.872;5.306;2023-02-01T01:51:35;101813.22;;;5.43;100.00
25238;BME280;13185;50.872;5.306;2023-02-01T01:54:12;101833.53;;;5.45;100.00
25238;BME280;13185;50.872;5.306;2023-02-01T01:56:43;101826.44;;;5.46;100.00
25238;BME280;13185;50.872;5.306;2023-02-01T01:59:10;101826.38;;;5.47;100.00
25238;BME280;13185;50.872;5.306;2023-02-01T02:01:35;101826.34;;;5.49;100.00
25238;BME280;13185;50.872;5.306;2023-02-01T02:04:01;101827.19;;;5.49;100.00
25238;BME280;13185;50.872;5.306;2023-02-01T02:06:39;101848.44;;;5.51;100.00
25238;BME280;13185;50.872;5.306;2023-02-01T02:09:06;101849.31;;;5.51;100.00
25238;BME280;13185;50.872;5.306;2023-02-01T02:11:32;101846.66;;;5.51;100.00
25238;BME280;13185;50.872;5.306;2023-02-01T02:13:58;101848.38;;;5.54;100.00
25238;BME280;13185;50.872;5.306;2023-02-01T02:19:34;101859.03;;;5.54;100.00
25238;BME280;13185;50.872;5.306;2023-02-01T02:27:57;101862.50;;;5.56;100.00
25238;BME280;13185;50.872;5.306;2023-02-01T02:36:01;101862.50;;;5.56;100.00
25238;BME280;13185;50.872;5.306;2023-02-01T02:38:33;101873.16;;;5.56;100.00
25238;BME280;13185;50.872;5.306;2023-02-01T02:41:15;101869.56;;;5.57;100.00
25238;BME280;13185;50.872;5.306;2023-02-01T02:44:23;101870.50;;;5.56;100.00
25238;BME280;13185;50.872;5.306;2023-02-01T02:47:19;101855.44;;;5.55;100.00
25238;BME280;13185;50.872;5.306;2023-02-01T02:50:16;101852.78;;;5.55;100.00
25238;BME280;13185;50.872;5.306;2023-02-01T02:53:28;101843.06;;;5.54;100.00
25238;BME280;13185;50.872;5.306;2023-02-01T02:56:18;101835.19;;;5.49;100.00
25238;BME280;13185;50.872;5.306;2023-02-01T02:59:07;101849.41;;;5.48;100.00
25238;BME280;13185;50.872;5.306;2023-02-01T03:01:52;101858.25;;;5.49;100.00
25238;BME280;13185;50.872;5.306;2023-02-01T03:04:40;101853.84;;;5.48;100.00
25238;BME280;13185;50.872;5.306;2023-02-01T03:13:32;101845.31;;;5.37;100.00
25238;BME280;13185;50.872;5.306;2023-02-01T03:18:57;101836.66;;;5.29;100.00
25238;BME280;13185;50.872;5.306;2023-02-01T03:24:00;101832.44;;;5.20;100.00
25238;BME280;13185;50.872;5.306;2023-02-01T03:26:28;101825.41;;;5.19;100.00
25238;BME280;13185;50.872;5.306;2023-02-01T03:29:02;101832.50;;;5.18;100.00
25238;BME280;13185;50.872;5.306;2023-02-01T03:31:30;101826.34;;;5.16;99.92
25238;BME280;13185;50.872;5.306;2023-02-01T03:33:57;101825.47;;;5.16;99.42
25238;BME280;13185;50.872;5.306;2023-02-01T03:36:32;101831.75;;;5.13;99.28
25238;BME280;13185;50.872;5.306;2023-02-01T03:39:05;101825.63;;;5.11;98.54
25238;BME280;13185;50.872;5.306;2023-02-01T03:41:35;101826.50;;;5.12;98.37
25238;BME280;13185;50.872;5.306;2023-02-01T03:49:43;101820.25;;;5.13;96.65
25238;BME280;13185;50.872;5.306;2023-02-01T03:52:17;101829.16;;;5.12;96.88
25238;BME280;13185;50.872;5.306;2023-02-01T03:54:44;101820.31;;;5.10;96.06
25238;BME280;13185;50.872;5.306;2023-02-01T03:57:13;101829.16;;;5.10;96.15
25238;BME280;13185;50.872;5.306;2023-02-01T03:59:43;101838.16;;;5.06;96.14
25238;BME280;13185;50.872;5.306;2023-02-01T04:02:09;101839.97;;;5.04;95.83
25238;BME280;13185;50.872;5.306;2023-02-01T04:04:36;101846.25;;;5.02;95.87
25238;BME280;13185;50.872;5.306;2023-02-01T04:07:03;101841.00;;;4.99;95.83
25238;BME280;13185;50.872;5.306;2023-02-01T04:09:29;101849.06;;;4.96;95.75
25238;BME280;13185;50.872;5.306;2023-02-01T04:11:54;101843.78;;;4.94;95.76
25238;BME280;13185;50.872;5.306;2023-02-01T04:14:20;101851.84;;;4.91;95.83
25238;BME280;13185;50.872;5.306;2023-02-01T04:16:45;101849.28;;;4.86;95.80
25238;BME280;13185;50.872;5.306;2023-02-01T04:19:11;101843.16;;;4.84;95.43
25238;BME280;13185;50.872;5.306;2023-02-01T04:21:37;101848.50;;;4.83;95.44
25238;BME280;13185;50.872;5.306;2023-02-01T04:24:03;101841.44;;;4.82;95.37
25238;BME280;13185;50.872;5.306;2023-02-01T04:26:28;101848.59;;;4.80;95.34
25238;BME280;13185;50.872;5.306;2023-02-01T04:28:53;101860.16;;;4.77;95.31
25238;BME280;13185;50.872;5.306;2023-02-01T04:31:19;101851.25;;;4.78;95.22
25238;BME280;13185;50.872;5.306;2023-02-01T04:33:54;101851.31;;;4.77;95.37
25238;BME280;13185;50.872;5.306;2023-02-01T04:36:23;101851.41;;;4.74;95.18
25238;BME280;13185;50.872;5.306;2023-02-01T04:38:52;101858.50;;;4.73;95.09
25238;BME280;13185;50.872;5.306;2023-02-01T04:41:18;101854.13;;;4.71;95.33
25238;BME280;13185;50.872;5.306;2023-02-01T04:43:47;101855.91;;;4.70;95.44
25238;BME280;13185;50.872;5.306;2023-02-01T04:46:13;101853.28;;;4.69;95.64
25238;BME280;13185;50.872;5.306;2023-02-01T04:48:39;101842.72;;;4.66;95.95
25238;BME280;13185;50.872;5.306;2023-02-01T04:51:04;101839.25;;;4.63;96.21
25238;BME280;13185;50.872;5.306;2023-02-01T04:53:30;101844.66;;;4.60;96.49
25238;BME280;13185;50.872;5.306;2023-02-01T04:55:55;101834.97;;;4.56;96.61
25238;BME280;13185;50.872;5.306;2023-02-01T04:58:21;101845.66;;;4.55;96.86
25238;BME280;13185;50.872;5.306;2023-02-01T05:00:46;101846.56;;;4.54;97.04
25238;BME280;13185;50.872;5.306;2023-02-01T05:03:12;101850.13;;;4.53;97.22
25238;BME280;13185;50.872;5.306;2023-02-01T05:05:38;101851.88;;;4.54;97.51
25238;BME280;13185;50.872;5.306;2023-02-01T05:08:03;101860.75;;;4.53;97.45
25238;BME280;13185;50.872;5.306;2023-02-01T05:10:29;101841.25;;;4.54;97.55
25238;BME280;13185;50.872;5.306;2023-02-01T05:12:54;101844.78;;;4.54;97.43
25238;BME280;13185;50.872;5.306;2023-02-01T05:15:38;101857.19;;;4.54;97.45
25238;BME280;13185;50.872;5.306;2023-02-01T05:18:03;101839.50;;;4.53;97.49
25238;BME280;13185;50.872;5.306;2023-02-01T05:20:29;101840.47;;;4.50;97.59
25238;BME280;13185;50.872;5.306;2023-02-01T05:22:54;101842.25;;;4.50;97.68
25238;BME280;13185;50.872;5.306;2023-02-01T05:25:20;101834.31;;;4.48;97.76
25238;BME280;13185;50.872;5.306;2023-02-01T05:27:45;101831.69;;;4.47;98.05
25238;BME280;13185;50.872;5.306;2023-02-01T05:30:11;101825.53;;;4.45;98.09
25238;BME280;13185;50.872;5.306;2023-02-01T05:32:37;101827.41;;;4.41;98.37
25238;BME280;13185;50.872;5.306;2023-02-01T05:35:02;101832.81;;;4.37;98.62
25238;BME280;13185;50.872;5.306;2023-02-01T05:37:28;101828.41;;;4.35;98.91
25238;BME280;13185;50.872;5.306;2023-02-01T05:39:53;101829.41;;;4.31;98.96
25238;BME280;13185;50.872;5.306;2023-02-01T05:42:19;101841.00;;;4.27;99.25
25238;BME280;13185;50.872;5.306;2023-02-01T05:44:44;101834.84;;;4.25;99.32
25238;BME280;13185;50.872;5.306;2023-02-01T05:47:10;101832.22;;;4.24;99.50
25238;BME280;13185;50.872;5.306;2023-02-01T05:49:35;101826.94;;;4.22;99.40
25238;BME280;13185;50.872;5.306;2023-02-01T05:52:01;101824.28;;;4.22;99.49
25238;BME280;13185;50.872;5.306;2023-02-01T05:54:27;101834.09;;;4.20;99.52
25238;BME280;13185;50.872;5.306;2023-02-01T05:56:52;101823.50;;;4.19;99.48
25238;BME280;13185;50.872;5.306;2023-02-01T05:59:18;101833.28;;;4.15;99.56
25238;BME280;13185;50.872;5.306;2023-02-01T06:01:43;101836.00;;;4.14;99.66
25238;BME280;13185;50.872;5.306;2023-02-01T06:04:08;101839.56;;;4.13;99.85
25238;BME280;13185;50.872;5.306;2023-02-01T06:06:34;101838.78;;;4.09;99.90
25238;BME280;13185;50.872;5.306;2023-02-01T06:09:00;101837.94;;;4.07;100.00
25238;BME280;13185;50.872;5.306;2023-02-01T06:11:26;101835.28;;;4.05;100.00
25238;BME280;13185;50.872;5.306;2023-02-01T06:13:51;101842.41;;;4.03;100.00
25238;BME280;13185;50.872;5.306;2023-02-01T06:16:19;101849.50;;;4.03;100.00
25238;BME280;13185;50.872;5.306;2023-02-01T06:18:44;101850.41;;;4.02;100.00
25238;BME280;13185;50.872;5.306;2023-02-01T06:21:10;101854.03;;;3.99;100.00
25238;BME280;13185;50.872;5.306;2023-02-01T06:23:36;101849.66;;;3.97;100.00
25238;BME280;13185;50.872;5.306;2023-02-01T06:26:04;101847.88;;;3.96;100.00
25238;BME280;13185;50.872;5.306;2023-02-01T06:28:31;101847.88;;;3.96;100.00
25238;BME280;13185;50.872;5.306;2023-02-01T06:31:02;101851.44;;;3.95;100.00
25238;BME280;13185;50.872;5.306;2023-02-01T06:33:28;101855.84;;;3.96;100.00
25238;BME280;13185;50.872;5.306;2023-02-01T06:35:57;101854.09;;;3.95;100.00
25238;BME280;13185;50.872;5.306;2023-02-01T06:38:24;101851.44;;;3.95;100.00
25238;BME280;13185;50.872;5.306;2023-02-01T06:40:53;101853.19;;;3.96;100.00
25238;BME280;13185;50.872;5.306;2023-02-01T06:43:20;101847.91;;;3.94;100.00
25238;BME280;13185;50.872;5.306;2023-02-01T06:45:46;101854.13;;;3.93;100.00
25238;BME280;13185;50.872;5.306;2023-02-01T06:48:11;101856.84;;;3.92;100.00
25238;BME280;13185;50.872;5.306;2023-02-01T06:50:37;101855.09;;;3.91;100.00
25238;BME280;13185;50.872;5.306;2023-02-01T06:53:02;101848.06;;;3.88;100.00
25238;BME280;13185;50.872;5.306;2023-02-01T06:55:28;101859.59;;;3.87;100.00
25238;BME280;13185;50.872;5.306;2023-02-01T06:57:54;101861.38;;;3.87;100.00
25238;BME280;13185;50.872;5.306;2023-02-01T07:00:20;101861.38;;;3.87;100.00
25238;BME280;13185;50.872;5.306;2023-02-01T07:02:46;101861.38;;;3.85;100.00
25238;BME280;13185;50.872;5.306;2023-02-01T07:05:11;101871.09;;;3.88;100.00
25238;BME280;13185;50.872;5.306;2023-02-01T07:07:39;101873.75;;;3.88;100.00
25238;BME280;13185;50.872;5.306;2023-02-01T07:10:05;101871.97;;;3.88;100.00
25238;BME280;13185;50.872;5.306;2023-02-01T07:12:30;101879.03;;;3.88;100.00
25238;BME280;13185;50.872;5.306;2023-02-01T07:14:58;101872.91;;;3.86;100.00
25238;BME280;13185;50.872;5.306;2023-02-01T07:17:24;101880.88;;;3.84;100.00
25238;BME280;13185;50.872;5.306;2023-02-01T07:19:49;101883.56;;;3.83;100.00
25238;BME280;13185;50.872;5.306;2023-02-01T07:22:18;101873.00;;;3.80;100.00
25238;BME280;13185;50.872;5.306;2023-02-01T07:24:44;101869.50;;;3.79;100.00
25238;BME280;13185;50.872;5.306;2023-02-01T07:27:09;101873.97;;;3.77;100.00
25238;BME280;13185;50.872;5.306;2023-02-01T07:29:35;101870.44;;;3.75;100.00
25238;BME280;13185;50.872;5.306;2023-02-01T07:32:00;101866.97;;;3.71;100.00
25238;BME280;13185;50.872;5.306;2023-02-01T07:34:28;101868.84;;;3.68;100.00
25238;BME280;13185;50.872;5.306;2023-02-01T07:36:53;101879.44;;;3.68;100.00
25238;BME280;13185;50.872;5.306;2023-02-01T07:39:19;101881.22;;;3.67;100.00
25238;BME280;13185;50.872;5.306;2023-02-01T07:41:45;101867.09;;;3.67;100.00
25238;BME280;13185;50.872;5.306;2023-02-01T07:44:12;101883.00;;;3.67;100.00
25238;BME280;13185;50.872;5.306;2023-02-01T07:46:37;101877.72;;;3.67;100.00
25238;BME280;13185;50.872;5.306;2023-02-01T07:49:05;101877.75;;;3.65;100.00
25238;BME280;13185;50.872;5.306;2023-02-01T07:51:31;101878.63;;;3.66;100.00
25238;BME280;13185;50.872;5.306;2023-02-01T07:53:57;101876.84;;;3.66;100.00
25238;BME280;13185;50.872;5.306;2023-02-01T07:56:22;101876.88;;;3.65;100.00
25238;BME280;13185;50.872;5.306;2023-02-01T07:58:53;101881.28;;;3.64;100.00
25238;BME280;13185;50.872;5.306;2023-02-01T08:01:23;101876.91;;;3.62;100.00
25238;BME280;13185;50.872;5.306;2023-02-01T08:04:01;101885.69;;;3.64;100.00
25238;BME280;13185;50.872;5.306;2023-02-01T08:06:30;101897.22;;;3.63;100.00
25238;BME280;13185;50.872;5.306;2023-02-01T08:08:56;101902.53;;;3.63;100.00
25238;BME280;13185;50.872;5.306;2023-02-01T08:11:23;101896.34;;;3.62;100.00
25238;BME280;13185;50.872;5.306;2023-02-01T08:13:49;101897.22;;;3.63;100.00
25238;BME280;13185;50.872;5.306;2023-02-01T08:16:16;101892.78;;;3.63;100.00
25238;BME280;13185;50.872;5.306;2023-02-01T08:18:42;101905.16;;;3.64;100.00
25238;BME280;13185;50.872;5.306;2023-02-01T08:23:36;101904.13;;;3.71;100.00
25238;BME280;13185;50.872;5.306;2023-02-01T08:26:09;101897.88;;;3.75;100.00
25238;BME280;13185;50.872;5.306;2023-02-01T08:28:36;101905.78;;;3.79;100.00
25238;BME280;13185;50.872;5.306;2023-02-01T08:31:06;101912.75;;;3.83;100.00
25238;BME280;13185;50.872;5.306;2023-02-01T08:33:33;101922.34;;;3.90;100.00
25238;BME280;13185;50.872;5.306;2023-02-01T08:36:01;101923.97;;;3.95;100.00
25238;BME280;13185;50.872;5.306;2023-02-01T08:38:26;101918.59;;;4.00;100.00
25238;BME280;13185;50.872;5.306;2023-02-01T08:40:52;101919.41;;;4.03;100.00
25238;BME280;13185;50.872;5.306;2023-02-01T08:43:18;101928.19;;;4.07;100.00
25238;BME280;13185;50.872;5.306;2023-02-01T08:45:44;101921.06;;;4.09;100.00
25238;BME280;13185;50.872;5.306;2023-02-01T08:48:09;101928.09;;;4.12;100.00
25238;BME280;13185;50.872;5.306;2023-02-01T08:50:35;101934.16;;;4.17;100.00
25238;BME280;13185;50.872;5.306;2023-02-01T08:53:00;101928.81;;;4.20;100.00
25238;BME280;13185;50.872;5.306;2023-02-01T08:55:26;101935.78;;;4.24;100.00
25238;BME280;13185;50.872;5.306;2023-02-01T08:57:51;101939.25;;;4.27;100.00
25238;BME280;13185;50.872;5.306;2023-02-01T09:00:17;101930.38;;;4.28;100.00
25238;BME280;13185;50.872;5.306;2023-02-01T09:02:43;101932.97;;;4.31;100.00
25238;BME280;13185;50.872;5.306;2023-02-01T09:05:09;101922.28;;;4.34;100.00
25238;BME280;13185;50.872;5.306;2023-02-01T09:07:36;101923.97;;;4.39;100.00
25238;BME280;13185;50.872;5.306;2023-02-01T09:10:03;101929.16;;;4.43;100.00
25238;BME280;13185;50.872;5.306;2023-02-01T09:12:30;101919.34;;;4.47;100.00
25238;BME280;13185;50.872;5.306;2023-02-01T09:14:57;101922.81;;;4.50;100.00
25238;BME280;13185;50.872;5.306;2023-02-01T09:17:25;101914.75;;;4.53;100.00
25238;BME280;13185;50.872;5.306;2023-02-01T09:19:51;101914.72;;;4.55;100.00
25238;BME280;13185;50.872;5.306;2023-02-01T09:22:16;101907.53;;;4.60;100.00
25238;BME280;13185;50.872;5.306;2023-02-01T09:24:42;101911.03;;;4.62;100.00
25238;BME280;13185;50.872;5.306;2023-02-01T09:27:08;101910.06;;;4.64;99.73
25238;BME280;13185;50.872;5.306;2023-02-01T09:29:34;101894.03;;;4.69;99.34
25238;BME280;13185;50.872;5.306;2023-02-01T09:31:59;101901.06;;;4.72;99.59
25238;BME280;13185;50.872;5.306;2023-02-01T09:34:25;101894.78;;;4.74;99.28
25238;BME280;13185;50.872;5.306;2023-02-01T09:36:50;101895.56;;;4.78;98.85
25238;BME280;13185;50.872;5.306;2023-02-01T09:39:17;101887.56;;;4.79;98.95
25238;BME280;13185;50.872;5.306;2023-02-01T09:46:55;101862.66;;;4.83;98.05
25238;BME280;13185;50.872;5.306;2023-02-01T09:49:30;101873.25;;;4.85;97.79
25238;BME280;13185;50.872;5.306;2023-02-01T09:51:57;101875.84;;;4.88;97.57
25238;BME280;13185;50.872;5.306;2023-02-01T09:54:29;101879.34;;;4.90;97.47
25238;BME280;13185;50.872;5.306;2023-02-01T09:57:09;101870.41;;;4.92;97.55
25238;BME280;13185;50.872;5.306;2023-02-01T10:00:03;101872.06;;;4.97;97.51
25238;BME280;13185;50.872;5.306;2023-02-01T10:02:38;101879.97;;;5.00;97.84
25238;BME280;13185;50.872;5.306;2023-02-01T10:05:05;101879.94;;;5.01;97.35
25238;BME280;13185;50.872;5.306;2023-02-01T10:10:47;101905.41;;;5.10;97.57
25238;BME280;13185;50.872;5.306;2023-02-01T10:16:05;101894.59;;;5.17;96.57
25238;BME280;13185;50.872;5.306;2023-02-01T10:18:42;101890.03;;;5.22;96.49
25238;BME280;13185;50.872;5.306;2023-02-01T10:26:48;101903.88;;;5.35;95.97
25238;BME280;13185;50.872;5.306;2023-02-01T10:29:19;101895.75;;;5.40;95.95
25238;BME280;13185;50.872;5.306;2023-02-01T10:31:45;101893.91;;;5.43;95.85
25238;BME280;13185;50.872;5.306;2023-02-01T10:34:21;101902.56;;;5.50;95.64
25238;BME280;13185;50.872;5.306;2023-02-01T10:36:53;101905.09;;;5.56;95.48
25238;BME280;13185;50.872;5.306;2023-02-01T10:39:19;101900.50;;;5.61;95.67
25238;BME280;13185;50.872;5.306;2023-02-01T10:41:45;101900.38;;;5.66;95.31
25238;BME280;13185;50.872;5.306;2023-02-01T10:44:17;101895.75;;;5.72;95.89
25238;BME280;13185;50.872;5.306;2023-02-01T10:46:45;101917.75;;;5.79;94.83
25238;BME280;13185;50.872;5.306;2023-02-01T10:49:34;101899.88;;;5.83;94.49
25238;BME280;13185;50.872;5.306;2023-02-01T10:52:12;101897.06;;;5.89;94.85
25238;BME280;13185;50.872;5.306;2023-02-01T10:54:40;101881.91;;;5.92;94.67
25238;BME280;13185;50.872;5.306;2023-02-01T10:57:10;101872.06;;;5.96;94.07
25238;BME280;13185;50.872;5.306;2023-02-01T10:59:36;101871.91;;;6.00;93.65
25238;BME280;13185;50.872;5.306;2023-02-01T11:02:34;101877.06;;;6.06;94.50
25238;BME280;13185;50.872;5.306;2023-02-01T11:05:07;101887.50;;;6.13;92.64
25238;BME280;13185;50.872;5.306;2023-02-01T11:07:39;101886.50;;;6.17;91.79
25238;BME280;13185;50.872;5.306;2023-02-01T11:10:05;101873.03;;;6.21;91.70
25238;BME280;13185;50.872;5.306;2023-02-01T11:12:34;101879.06;;;6.28;91.24
25238;BME280;13185;50.872;5.306;2023-02-01T11:15:20;101868.25;;;6.32;90.60
25238;BME280;13185;50.872;5.306;2023-02-01T11:17:48;101871.56;;;6.41;90.13
25238;BME280;13185;50.872;5.306;2023-02-01T11:22:59;101855.81;;;6.61;89.39
25238;BME280;13185;50.872;5.306;2023-02-01T11:25:25;101845.97;;;6.63;88.00
25238;BME280;13185;50.872;5.306;2023-02-01T11:27:53;101843.97;;;6.70;87.65
25238;BME280;13185;50.872;5.306;2023-02-01T11:30:28;101855.34;;;6.75;87.52
25238;BME280;13185;50.872;5.306;2023-02-01T11:32:56;101838.34;;;6.79;87.57
25238;BME280;13185;50.872;5.306;2023-02-01T11:35:22;101831.97;;;6.83;87.14
25238;BME280;13185;50.872;5.306;2023-02-01T11:37:58;101834.31;;;6.92;86.70
25238;BME280;13185;50.872;5.306;2023-02-01T11:40:29;101836.63;;;7.03;85.99
25238;BME280;13185;50.872;5.306;2023-02-01T11:45:59;101818.38;;;7.15;85.59
25238;BME280;13185;50.872;5.306;2023-02-01T11:48:27;101838.53;;;7.24;85.24
25238;BME280;13185;50.872;5.306;2023-02-01T11:51:12;101828.75;;;7.24;83.14
25238;BME280;13185;50.872;5.306;2023-02-01T12:10:21;101824.38;;;7.70;80.07
25238;BME280;13185;50.872;5.306;2023-02-01T12:16:10;101805.13;;;7.62;79.29
25238;BME280;13185;50.872;5.306;2023-02-01T12:24:49;101796.28;;;7.60;79.27
25238;BME280;13185;50.872;5.306;2023-02-01T12:29:42;101805.13;;;7.62;79.71
25238;BME280;13185;50.872;5.306;2023-02-01T12:35:03;101794.97;;;7.72;78.89
25238;BME280;13185;50.872;5.306;2023-02-01T12:40:28;101800.88;;;7.80;79.44
25238;BME280;13185;50.872;5.306;2023-02-01T12:43:02;101786.72;;;7.78;79.31
25238;BME280;13185;50.872;5.306;2023-02-01T12:45:42;101827.03;;;7.72;78.34
25238;BME280;13185;50.872;5.306;2023-02-01T12:50:50;101785.56;;;7.62;78.57
25238;BME280;13185;50.872;5.306;2023-02-01T12:53:51;101797.34;;;7.56;78.22
25238;BME280;13185;50.872;5.306;2023-02-01T12:56:29;101790.31;;;7.53;78.00
25238;BME280;13185;50.872;5.306;2023-02-01T12:58:58;101785.97;;;7.51;78.06
25238;BME280;13185;50.872;5.306;2023-02-01T13:01:39;101786.84;;;7.51;78.06
25238;BME280;13185;50.872;5.306;2023-02-01T13:04:15;101787.66;;;7.53;78.16
25238;BME280;13185;50.872;5.306;2023-02-01T13:06:46;101779.66;;;7.53;78.41
25238;BME280;13185;50.872;5.306;2023-02-01T13:11:54;101770.72;;;7.55;77.94
25238;BME280;13185;50.872;5.306;2023-02-01T13:14:32;101774.25;;;7.55;77.94
25238;BME280;13185;50.872;5.306;2023-02-01T13:17:25;101769.78;;;7.56;78.18
25238;BME280;13185;50.872;5.306;2023-02-01T13:22:29;101759.09;;;7.56;77.16
25238;BME280;13185;50.872;5.306;2023-02-01T13:25:02;101767.03;;;7.57;76.74
25238;BME280;13185;50.872;5.306;2023-02-01T13:27:31;101763.50;;;7.57;77.09
25238;BME280;13185;50.872;5.306;2023-02-01T13:30:01;101789.28;;;7.58;76.28
25238;BME280;13185;50.872;5.306;2023-02-01T13:32:52;101773.19;;;7.59;76.60
25238;BME280;13185;50.872;5.306;2023-02-01T13:38:37;101765.03;;;7.64;76.08
25238;BME280;13185;50.872;5.306;2023-02-01T13:43:41;101764.91;;;7.67;76.16
25238;BME280;13185;50.872;5.306;2023-02-01T13:46:12;101765.75;;;7.67;76.57
25238;BME280;13185;50.872;5.306;2023-02-01T13:51:11;101764.03;;;7.66;75.94
25238;BME280;13185;50.872;5.306;2023-02-01T13:53:45;101772.91;;;7.67;75.79
25238;BME280;13185;50.872;5.306;2023-02-01T13:56:22;101767.50;;;7.68;75.98
25238;BME280;13185;50.872;5.306;2023-02-01T13:58:49;101772.75;;;7.71;76.20
25238;BME280;13185;50.872;5.306;2023-02-01T14:09:12;101760.66;;;7.85;76.17
25238;BME280;13185;50.872;5.306;2023-02-01T14:11:41;101757.78;;;7.89;75.61
25238;BME280;13185;50.872;5.306;2023-02-01T14:19:32;101773.94;;;7.86;75.88
25238;BME280;13185;50.872;5.306;2023-02-01T14:24:56;101775.81;;;7.84;76.08
25238;BME280;13185;50.872;5.306;2023-02-01T14:27:27;101774.94;;;7.84;76.31
25238;BME280;13185;50.872;5.306;2023-02-01T14:29:58;101772.28;;;7.84;76.67
25238;BME280;13185;50.872;5.306;2023-02-01T14:32:30;101775.88;;;7.82;76.25
25238;BME280;13185;50.872;5.306;2023-02-01T14:34:59;101784.81;;;7.81;76.09
25238;BME280;13185;50.872;5.306;2023-02-01T14:37:34;101783.91;;;7.81;76.73
25238;BME280;13185;50.872;5.306;2023-02-01T14:40:03;101781.25;;;7.81;76.30
25238;BME280;13185;50.872;5.306;2023-02-01T14:47:50;101800.72;;;7.85;76.15
25238;BME280;13185;50.872;5.306;2023-02-01T14:50:48;101798.84;;;7.87;76.08
25238;BME280;13185;50.872;5.306;2023-02-01T14:53:19;101788.16;;;7.87;76.28
25238;BME280;13185;50.872;5.306;2023-02-01T15:01:00;101792.63;;;7.86;76.85
25238;BME280;13185;50.872;5.306;2023-02-01T15:03:33;101791.84;;;7.84;76.75
25238;BME280;13185;50.872;5.306;2023-02-01T15:06:00;101798.91;;;7.85;76.62
25238;BME280;13185;50.872;5.306;2023-02-01T15:08:30;101789.16;;;7.84;76.45
25238;BME280;13185;50.872;5.306;2023-02-01T15:10:58;101789.09;;;7.86;76.97
25238;BME280;13185;50.872;5.306;2023-02-01T15:13:27;101795.38;;;7.85;76.79
25238;BME280;13185;50.872;5.306;2023-02-01T15:16:14;101799.84;;;7.84;76.73
25238;BME280;13185;50.872;5.306;2023-02-01T15:18:40;101797.13;;;7.86;76.92
25238;BME280;13185;50.872;5.306;2023-02-01T15:21:23;101801.59;;;7.85;76.87